SWR059B LSZH-LIRN
Flight info
| Callsign | SWR059B |
|---|---|
| Flight time | 1h 24m |
| Altitude | 33000 |
| Route | VEBIT T53 GERSA N850 SOSON DCT ODINA DCT LOMED DCT EVULI DCT ERIKA |
| Aircraft | A21N/M-SDE2E3FGHIRWXY/LB1 |
Departure
| Time | 2026-02-20 08:32 |
|---|---|
| Airport | Zürich Airport (LSZH) |
Arrival
| Time | 2026-02-20 09:57 |
|---|---|
| Airport | Naples International Airport (LIRN) |
| Time | Latitude | Longitude | Altitude | Speed | Heading |
|---|---|---|---|---|---|
| 2026-02-20 08:07 | 47.45333 | 8.55943 | 1385 ft | 0 kts | 6° |
| 2026-02-20 08:21 | 47.45328 | 8.55943 | 1418 ft | 2 kts | 5° |
| 2026-02-20 08:21 | 47.45309 | 8.55941 | 1418 ft | 3 kts | 0° |
| 2026-02-20 08:22 | 47.45289 | 8.55942 | 1417 ft | 3 kts | 353° |
| 2026-02-20 08:22 | 47.45270 | 8.55947 | 1416 ft | 4 kts | 339° |
| 2026-02-20 08:22 | 47.45253 | 8.55960 | 1415 ft | 5 kts | 309° |
| 2026-02-20 08:22 | 47.45247 | 8.55976 | 1417 ft | 5 kts | 276° |
| 2026-02-20 08:23 | 47.45247 | 8.55977 | 1417 ft | 3 kts | 276° |
| 2026-02-20 08:27 | 47.45249 | 8.55957 | 1414 ft | 4 kts | 276° |
| 2026-02-20 08:27 | 47.45253 | 8.55896 | 1412 ft | 8 kts | 275° |
| 2026-02-20 08:27 | 47.45259 | 8.55794 | 1415 ft | 12 kts | 275° |
| 2026-02-20 08:27 | 47.45268 | 8.55652 | 1412 ft | 16 kts | 276° |
| 2026-02-20 08:28 | 47.45343 | 8.55527 | 1413 ft | 19 kts | 338° |
| 2026-02-20 08:28 | 47.45474 | 8.55442 | 1409 ft | 22 kts | 335° |
| 2026-02-20 08:28 | 47.45611 | 8.55348 | 1408 ft | 18 kts | 345° |
| 2026-02-20 08:28 | 47.45663 | 8.55486 | 1407 ft | 21 kts | 97° |
| 2026-02-20 08:29 | 47.45649 | 8.55714 | 1411 ft | 23 kts | 95° |
| 2026-02-20 08:29 | 47.45636 | 8.55925 | 1415 ft | 21 kts | 96° |
| 2026-02-20 08:29 | 47.45619 | 8.56149 | 1417 ft | 23 kts | 96° |
| 2026-02-20 08:29 | 47.45599 | 8.56393 | 1422 ft | 25 kts | 97° |
| 2026-02-20 08:30 | 47.45590 | 8.56564 | 1425 ft | 12 kts | 94° |
| 2026-02-20 08:30 | 47.45582 | 8.56695 | 1424 ft | 14 kts | 95° |
| 2026-02-20 08:30 | 47.45572 | 8.56846 | 1426 ft | 15 kts | 96° |
| 2026-02-20 08:30 | 47.45569 | 8.56936 | 1426 ft | 0 kts | 81° |
| 2026-02-20 08:31 | 47.45570 | 8.56944 | 1426 ft | 3 kts | 81° |
| 2026-02-20 08:31 | 47.45591 | 8.57007 | 1428 ft | 7 kts | 36° |
| 2026-02-20 08:31 | 47.45652 | 8.57003 | 1430 ft | 13 kts | 316° |
| 2026-02-20 08:31 | 47.45674 | 8.56850 | 1427 ft | 18 kts | 277° |
| 2026-02-20 08:32 | 47.45699 | 8.56490 | 1422 ft | 67 kts | 276° |
| 2026-02-20 08:32 | 47.45773 | 8.55424 | 1406 ft | 139 kts | 276° |
| 2026-02-20 08:32 | 47.45969 | 8.52143 | 2480 ft | 159 kts | 275° |
| 2026-02-20 08:33 | 47.46094 | 8.50474 | 3137 ft | 171 kts | 277° |
| 2026-02-20 08:33 | 47.46246 | 8.48611 | 3542 ft | 195 kts | 276° |
| 2026-02-20 08:33 | 47.46023 | 8.46551 | 4061 ft | 216 kts | 242° |
| 2026-02-20 08:33 | 47.44875 | 8.45062 | 4825 ft | 231 kts | 206° |
| 2026-02-20 08:34 | 47.43438 | 8.43996 | 5654 ft | 231 kts | 225° |
| 2026-02-20 08:34 | 47.42400 | 8.42189 | 6398 ft | 236 kts | 231° |
| 2026-02-20 08:34 | 47.40960 | 8.40797 | 6805 ft | 267 kts | 200° |
| 2026-02-20 08:34 | 47.39067 | 8.40639 | 7263 ft | 280 kts | 171° |
| 2026-02-20 08:35 | 47.35244 | 8.42150 | 9009 ft | 287 kts | 165° |
| 2026-02-20 08:35 | 47.33309 | 8.42939 | 9890 ft | 291 kts | 165° |
| 2026-02-20 08:35 | 47.31321 | 8.43703 | 10514 ft | 303 kts | 166° |
| 2026-02-20 08:36 | 47.29217 | 8.44484 | 10869 ft | 323 kts | 166° |
| 2026-02-20 08:36 | 47.26963 | 8.45305 | 11188 ft | 343 kts | 166° |
| 2026-02-20 08:36 | 47.24632 | 8.46144 | 11672 ft | 355 kts | 166° |
| 2026-02-20 08:36 | 47.22180 | 8.47007 | 12377 ft | 361 kts | 166° |
| 2026-02-20 08:37 | 47.19718 | 8.47857 | 13101 ft | 367 kts | 165° |
| 2026-02-20 08:37 | 47.17244 | 8.48708 | 13815 ft | 373 kts | 165° |
| 2026-02-20 08:37 | 47.14703 | 8.49585 | 14461 ft | 378 kts | 165° |
| 2026-02-20 08:37 | 47.12128 | 8.50481 | 15119 ft | 383 kts | 165° |
| 2026-02-20 08:38 | 47.09518 | 8.51392 | 15759 ft | 387 kts | 165° |
| 2026-02-20 08:38 | 47.06881 | 8.52312 | 16411 ft | 392 kts | 165° |
| 2026-02-20 08:38 | 47.04197 | 8.53215 | 17028 ft | 400 kts | 168° |
| 2026-02-20 08:38 | 47.01403 | 8.53687 | 17642 ft | 407 kts | 174° |
| 2026-02-20 08:39 | 46.98561 | 8.53969 | 18244 ft | 412 kts | 175° |
| 2026-02-20 08:39 | 46.95692 | 8.54261 | 18812 ft | 416 kts | 174° |
| 2026-02-20 08:39 | 46.92788 | 8.54612 | 19391 ft | 421 kts | 174° |
| 2026-02-20 08:39 | 46.89862 | 8.55009 | 19948 ft | 425 kts | 173° |
| 2026-02-20 08:40 | 46.86901 | 8.55445 | 20511 ft | 429 kts | 172° |
| 2026-02-20 08:40 | 46.83916 | 8.55893 | 21023 ft | 435 kts | 173° |
| 2026-02-20 08:40 | 46.80885 | 8.56343 | 21484 ft | 440 kts | 173° |
| 2026-02-20 08:40 | 46.77827 | 8.56784 | 22054 ft | 445 kts | 173° |
| 2026-02-20 08:41 | 46.74743 | 8.57210 | 22726 ft | 445 kts | 172° |
| 2026-02-20 08:41 | 46.71656 | 8.57640 | 23339 ft | 447 kts | 172° |
| 2026-02-20 08:41 | 46.68549 | 8.58077 | 23887 ft | 449 kts | 172° |
| 2026-02-20 08:41 | 46.65424 | 8.58520 | 24269 ft | 454 kts | 172° |
| 2026-02-20 08:42 | 46.62256 | 8.58976 | 24549 ft | 461 kts | 172° |
| 2026-02-20 08:42 | 46.59040 | 8.59442 | 24838 ft | 467 kts | 172° |
| 2026-02-20 08:42 | 46.55787 | 8.59915 | 25164 ft | 472 kts | 172° |
| 2026-02-20 08:42 | 46.52502 | 8.60389 | 25471 ft | 477 kts | 172° |
| 2026-02-20 08:43 | 46.49180 | 8.60867 | 25817 ft | 483 kts | 172° |
| 2026-02-20 08:43 | 46.45817 | 8.61349 | 26100 ft | 488 kts | 172° |
| 2026-02-20 08:43 | 46.42418 | 8.61832 | 26394 ft | 493 kts | 173° |
| 2026-02-20 08:43 | 46.38987 | 8.62315 | 26633 ft | 497 kts | 172° |
| 2026-02-20 08:44 | 46.35526 | 8.62802 | 26898 ft | 503 kts | 173° |
| 2026-02-20 08:44 | 46.32020 | 8.63294 | 27138 ft | 507 kts | 172° |
| 2026-02-20 08:44 | 46.28553 | 8.63781 | 27310 ft | 508 kts | 173° |
| 2026-02-20 08:44 | 46.25017 | 8.64279 | 27620 ft | 513 kts | 173° |
| 2026-02-20 08:45 | 46.21448 | 8.64779 | 27905 ft | 518 kts | 173° |
| 2026-02-20 08:45 | 46.17842 | 8.65284 | 28178 ft | 523 kts | 173° |
| 2026-02-20 08:45 | 46.14204 | 8.65855 | 28465 ft | 529 kts | 169° |
| 2026-02-20 08:45 | 46.10667 | 8.67281 | 28749 ft | 526 kts | 152° |
| 2026-02-20 08:46 | 46.07502 | 8.69808 | 29043 ft | 516 kts | 136° |
| 2026-02-20 08:46 | 46.04725 | 8.73029 | 29415 ft | 512 kts | 131° |
| 2026-02-20 08:46 | 46.02030 | 8.76396 | 29869 ft | 513 kts | 130° |
| 2026-02-20 08:46 | 45.99306 | 8.79757 | 30095 ft | 517 kts | 131° |
| 2026-02-20 08:47 | 45.96534 | 8.83079 | 30412 ft | 520 kts | 132° |
| 2026-02-20 08:47 | 45.93741 | 8.86361 | 30769 ft | 520 kts | 133° |
| 2026-02-20 08:47 | 45.90933 | 8.89629 | 31146 ft | 519 kts | 133° |
| 2026-02-20 08:47 | 45.88130 | 8.92888 | 31532 ft | 518 kts | 134° |
| 2026-02-20 08:48 | 45.85337 | 8.96144 | 31906 ft | 517 kts | 134° |
| 2026-02-20 08:48 | 45.82548 | 8.99398 | 32226 ft | 517 kts | 134° |
| 2026-02-20 08:48 | 45.79755 | 9.02654 | 32524 ft | 517 kts | 134° |
| 2026-02-20 08:48 | 45.76960 | 9.05904 | 32800 ft | 518 kts | 134° |
| 2026-02-20 08:49 | 45.74170 | 9.09142 | 32921 ft | 514 kts | 134° |
| 2026-02-20 08:49 | 45.71400 | 9.12351 | 32895 ft | 511 kts | 134° |
| 2026-02-20 08:49 | 45.66806 | 9.17668 | 32845 ft | 512 kts | 134° |
| 2026-02-20 08:50 | 45.61268 | 9.24070 | 32843 ft | 512 kts | 134° |
| 2026-02-20 08:50 | 45.55717 | 9.30470 | 32852 ft | 514 kts | 134° |
| 2026-02-20 08:51 | 45.50153 | 9.36867 | 32858 ft | 514 kts | 134° |
| 2026-02-20 08:51 | 45.44662 | 9.43163 | 32815 ft | 502 kts | 134° |
| 2026-02-20 08:52 | 45.39214 | 9.49400 | 32799 ft | 503 kts | 134° |
| 2026-02-20 08:52 | 45.33742 | 9.55639 | 32813 ft | 505 kts | 134° |
| 2026-02-20 08:53 | 45.28254 | 9.61876 | 32821 ft | 505 kts | 134° |
| 2026-02-20 08:53 | 45.22767 | 9.68101 | 32886 ft | 504 kts | 135° |
| 2026-02-20 08:54 | 45.17347 | 9.74231 | 32820 ft | 497 kts | 135° |
| 2026-02-20 08:54 | 45.11922 | 9.80363 | 32815 ft | 501 kts | 135° |
| 2026-02-20 08:55 | 45.06461 | 9.86510 | 32812 ft | 501 kts | 135° |
| 2026-02-20 08:55 | 45.01001 | 9.92645 | 32806 ft | 501 kts | 135° |
| 2026-02-20 08:56 | 44.95545 | 9.98762 | 32850 ft | 498 kts | 137° |
| 2026-02-20 08:56 | 44.90145 | 10.04791 | 32832 ft | 494 kts | 136° |
| 2026-02-20 08:57 | 44.84749 | 10.10806 | 32842 ft | 495 kts | 136° |
| 2026-02-20 08:57 | 44.79344 | 10.16812 | 32845 ft | 495 kts | 137° |
| 2026-02-20 08:58 | 44.73932 | 10.22796 | 32846 ft | 495 kts | 137° |
| 2026-02-20 08:58 | 44.68554 | 10.28757 | 32874 ft | 486 kts | 138° |
| 2026-02-20 08:59 | 44.63275 | 10.34582 | 32804 ft | 482 kts | 138° |
| 2026-02-20 08:59 | 44.57994 | 10.40404 | 32792 ft | 482 kts | 138° |
| 2026-02-20 09:00 | 44.52709 | 10.46211 | 32791 ft | 483 kts | 138° |
| 2026-02-20 09:00 | 44.47420 | 10.52018 | 32784 ft | 484 kts | 138° |
| 2026-02-20 09:01 | 44.42146 | 10.57799 | 32832 ft | 484 kts | 139° |
| 2026-02-20 09:01 | 44.36872 | 10.63550 | 32802 ft | 479 kts | 139° |
| 2026-02-20 09:02 | 44.31609 | 10.69278 | 32789 ft | 480 kts | 139° |
| 2026-02-20 09:02 | 44.26344 | 10.74993 | 32792 ft | 480 kts | 139° |
| 2026-02-20 09:03 | 44.21039 | 10.80744 | 32789 ft | 480 kts | 139° |
| 2026-02-20 09:03 | 44.15769 | 10.86447 | 32796 ft | 480 kts | 139° |
| 2026-02-20 09:04 | 44.10535 | 10.92099 | 32804 ft | 479 kts | 139° |
| 2026-02-20 09:04 | 44.05249 | 10.97788 | 32840 ft | 482 kts | 139° |
| 2026-02-20 09:05 | 44.00134 | 11.03763 | 32864 ft | 480 kts | 134° |
| 2026-02-20 09:05 | 43.95272 | 11.10107 | 32867 ft | 479 kts | 133° |
| 2026-02-20 09:06 | 43.90436 | 11.16471 | 32867 ft | 479 kts | 133° |
| 2026-02-20 09:06 | 43.85598 | 11.22818 | 32873 ft | 479 kts | 133° |
| 2026-02-20 09:07 | 43.80747 | 11.29151 | 32862 ft | 479 kts | 133° |
| 2026-02-20 09:07 | 43.75911 | 11.35455 | 32869 ft | 476 kts | 134° |
| 2026-02-20 09:08 | 43.71083 | 11.41726 | 32861 ft | 476 kts | 134° |
| 2026-02-20 09:08 | 43.66247 | 11.47993 | 32864 ft | 476 kts | 134° |
| 2026-02-20 09:09 | 43.61415 | 11.54253 | 32866 ft | 477 kts | 134° |
| 2026-02-20 09:09 | 43.56577 | 11.60503 | 32868 ft | 477 kts | 134° |
| 2026-02-20 09:10 | 43.51729 | 11.66740 | 32866 ft | 477 kts | 134° |
| 2026-02-20 09:10 | 43.46890 | 11.72953 | 32870 ft | 474 kts | 135° |
| 2026-02-20 09:11 | 43.42061 | 11.79139 | 32857 ft | 474 kts | 135° |
| 2026-02-20 09:11 | 43.37210 | 11.85336 | 32853 ft | 477 kts | 135° |
| 2026-02-20 09:12 | 43.32340 | 11.91535 | 32849 ft | 477 kts | 135° |
| 2026-02-20 09:12 | 43.27465 | 11.97732 | 32851 ft | 477 kts | 135° |
| 2026-02-20 09:13 | 43.22597 | 12.03911 | 32854 ft | 477 kts | 135° |
| 2026-02-20 09:13 | 43.17731 | 12.10065 | 32843 ft | 474 kts | 135° |
| 2026-02-20 09:14 | 43.12888 | 12.16190 | 32850 ft | 474 kts | 135° |
| 2026-02-20 09:14 | 43.08074 | 12.22266 | 32850 ft | 474 kts | 135° |
| 2026-02-20 09:15 | 43.03217 | 12.28374 | 32852 ft | 474 kts | 135° |
| 2026-02-20 09:15 | 42.98356 | 12.34470 | 32854 ft | 474 kts | 135° |
| 2026-02-20 09:16 | 42.93491 | 12.40555 | 32848 ft | 475 kts | 136° |
| 2026-02-20 09:16 | 42.88634 | 12.46626 | 32872 ft | 473 kts | 136° |
| 2026-02-20 09:17 | 42.83783 | 12.52669 | 32871 ft | 473 kts | 136° |
| 2026-02-20 09:17 | 42.78927 | 12.58709 | 32879 ft | 473 kts | 136° |
| 2026-02-20 09:18 | 42.74067 | 12.64738 | 32891 ft | 473 kts | 136° |
| 2026-02-20 09:18 | 42.69199 | 12.70768 | 32871 ft | 474 kts | 136° |
| 2026-02-20 09:19 | 42.64314 | 12.76807 | 32873 ft | 474 kts | 136° |
| 2026-02-20 09:19 | 42.59448 | 12.82810 | 32877 ft | 472 kts | 137° |
| 2026-02-20 09:20 | 42.54592 | 12.88778 | 32869 ft | 472 kts | 137° |
| 2026-02-20 09:20 | 42.49725 | 12.94752 | 32872 ft | 472 kts | 137° |
| 2026-02-20 09:21 | 42.44856 | 13.00713 | 32879 ft | 473 kts | 137° |
| 2026-02-20 09:21 | 42.39957 | 13.06700 | 32889 ft | 475 kts | 137° |
| 2026-02-20 09:22 | 42.35050 | 13.12679 | 32877 ft | 475 kts | 137° |
| 2026-02-20 09:22 | 42.30159 | 13.18636 | 32884 ft | 472 kts | 137° |
| 2026-02-20 09:23 | 42.25279 | 13.24558 | 32889 ft | 472 kts | 138° |
| 2026-02-20 09:23 | 42.20389 | 13.30479 | 32882 ft | 472 kts | 138° |
| 2026-02-20 09:24 | 42.15517 | 13.36439 | 32884 ft | 473 kts | 137° |
| 2026-02-20 09:24 | 42.10725 | 13.42489 | 32882 ft | 472 kts | 136° |
| 2026-02-20 09:25 | 42.05935 | 13.48555 | 32886 ft | 473 kts | 136° |
| 2026-02-20 09:25 | 42.01154 | 13.54604 | 32884 ft | 472 kts | 137° |
| 2026-02-20 09:26 | 41.96367 | 13.60638 | 32887 ft | 472 kts | 137° |
| 2026-02-20 09:26 | 41.91576 | 13.66656 | 32878 ft | 472 kts | 137° |
| 2026-02-20 09:27 | 41.89221 | 13.69616 | 32472 ft | 468 kts | 137° |
| 2026-02-20 09:27 | 41.86824 | 13.72628 | 31381 ft | 475 kts | 137° |
| 2026-02-20 09:27 | 41.84379 | 13.75704 | 30519 ft | 475 kts | 137° |
| 2026-02-20 09:27 | 41.81978 | 13.78719 | 29740 ft | 472 kts | 137° |
| 2026-02-20 09:28 | 41.79622 | 13.81674 | 28893 ft | 468 kts | 137° |
| 2026-02-20 09:28 | 41.77259 | 13.84636 | 28163 ft | 462 kts | 137° |
| 2026-02-20 09:28 | 41.74924 | 13.87558 | 27453 ft | 456 kts | 138° |
| 2026-02-20 09:28 | 41.72621 | 13.90435 | 26722 ft | 451 kts | 138° |
| 2026-02-20 09:29 | 41.70344 | 13.93275 | 26047 ft | 445 kts | 138° |
| 2026-02-20 09:29 | 41.68086 | 13.96082 | 25360 ft | 440 kts | 138° |
| 2026-02-20 09:29 | 41.65860 | 13.98847 | 24681 ft | 435 kts | 139° |
| 2026-02-20 09:29 | 41.63653 | 14.01585 | 23986 ft | 430 kts | 139° |
| 2026-02-20 09:30 | 41.61521 | 14.04355 | 23327 ft | 426 kts | 135° |
| 2026-02-20 09:30 | 41.59496 | 14.07221 | 22545 ft | 422 kts | 134° |
| 2026-02-20 09:30 | 41.57512 | 14.10085 | 21783 ft | 418 kts | 134° |
| 2026-02-20 09:30 | 41.55555 | 14.12931 | 21090 ft | 414 kts | 134° |
| 2026-02-20 09:31 | 41.53614 | 14.15751 | 20397 ft | 410 kts | 134° |
| 2026-02-20 09:31 | 41.51691 | 14.18538 | 19768 ft | 405 kts | 134° |
| 2026-02-20 09:31 | 41.49799 | 14.21278 | 19244 ft | 398 kts | 134° |
| 2026-02-20 09:31 | 41.47934 | 14.23977 | 18665 ft | 394 kts | 134° |
| 2026-02-20 09:32 | 41.46082 | 14.26655 | 18076 ft | 391 kts | 134° |
| 2026-02-20 09:32 | 41.44247 | 14.29306 | 17433 ft | 387 kts | 134° |
| 2026-02-20 09:32 | 41.42416 | 14.31907 | 16842 ft | 382 kts | 137° |
| 2026-02-20 09:32 | 41.40484 | 14.34270 | 16438 ft | 372 kts | 140° |
| 2026-02-20 09:33 | 41.38560 | 14.36502 | 16127 ft | 363 kts | 141° |
| 2026-02-20 09:33 | 41.36649 | 14.38702 | 15863 ft | 363 kts | 141° |
| 2026-02-20 09:33 | 41.34745 | 14.40898 | 15617 ft | 362 kts | 141° |
| 2026-02-20 09:33 | 41.32764 | 14.42931 | 15375 ft | 359 kts | 148° |
| 2026-02-20 09:34 | 41.30658 | 14.44703 | 15137 ft | 357 kts | 150° |
| 2026-02-20 09:34 | 41.28535 | 14.46420 | 14902 ft | 356 kts | 151° |
| 2026-02-20 09:34 | 41.26406 | 14.48063 | 14651 ft | 350 kts | 157° |
| 2026-02-20 09:34 | 41.24120 | 14.48846 | 14414 ft | 342 kts | 180° |
| 2026-02-20 09:35 | 41.21851 | 14.48373 | 14180 ft | 322 kts | 206° |
| 2026-02-20 09:35 | 41.20112 | 14.46706 | 14006 ft | 301 kts | 234° |
| 2026-02-20 09:35 | 41.19282 | 14.44278 | 13851 ft | 283 kts | 260° |
| 2026-02-20 09:35 | 41.19000 | 14.41758 | 13714 ft | 270 kts | 262° |
| 2026-02-20 09:36 | 41.18293 | 14.39531 | 13533 ft | 260 kts | 231° |
| 2026-02-20 09:36 | 41.16824 | 14.38193 | 13344 ft | 263 kts | 201° |
| 2026-02-20 09:36 | 41.15605 | 14.37903 | 13216 ft | 267 kts | 181° |
| 2026-02-20 09:36 | 41.13807 | 14.38555 | 13032 ft | 273 kts | 154° |
| 2026-02-20 09:37 | 41.12178 | 14.39855 | 12846 ft | 274 kts | 149° |
| 2026-02-20 09:37 | 41.10582 | 14.41235 | 12667 ft | 273 kts | 148° |
| 2026-02-20 09:37 | 41.08987 | 14.42603 | 12477 ft | 273 kts | 149° |
| 2026-02-20 09:37 | 41.07391 | 14.43958 | 12286 ft | 272 kts | 149° |
| 2026-02-20 09:38 | 41.05800 | 14.45300 | 12097 ft | 270 kts | 149° |
| 2026-02-20 09:38 | 41.04216 | 14.46620 | 11911 ft | 269 kts | 149° |
| 2026-02-20 09:38 | 41.02633 | 14.47934 | 11725 ft | 269 kts | 149° |
| 2026-02-20 09:38 | 41.01047 | 14.49244 | 11544 ft | 268 kts | 149° |
| 2026-02-20 09:39 | 40.99469 | 14.50547 | 11375 ft | 267 kts | 149° |
| 2026-02-20 09:39 | 40.97915 | 14.51828 | 11187 ft | 266 kts | 149° |
| 2026-02-20 09:39 | 40.96345 | 14.53122 | 11008 ft | 266 kts | 149° |
| 2026-02-20 09:39 | 40.94775 | 14.54413 | 10831 ft | 265 kts | 149° |
| 2026-02-20 09:40 | 40.93248 | 14.55776 | 10652 ft | 265 kts | 139° |
| 2026-02-20 09:40 | 40.92134 | 14.57695 | 10477 ft | 265 kts | 114° |
| 2026-02-20 09:40 | 40.91749 | 14.60036 | 10305 ft | 261 kts | 82° |
| 2026-02-20 09:40 | 40.92301 | 14.62278 | 10148 ft | 257 kts | 57° |
| 2026-02-20 09:41 | 40.93240 | 14.64274 | 10000 ft | 252 kts | 54° |
| 2026-02-20 09:41 | 40.94183 | 14.66175 | 9851 ft | 241 kts | 54° |
| 2026-02-20 09:41 | 40.95077 | 14.67993 | 9667 ft | 232 kts | 54° |
| 2026-02-20 09:41 | 40.95943 | 14.69779 | 9306 ft | 229 kts | 55° |
| 2026-02-20 09:42 | 40.96794 | 14.71566 | 8919 ft | 229 kts | 55° |
| 2026-02-20 09:42 | 40.97636 | 14.73346 | 8535 ft | 228 kts | 56° |
| 2026-02-20 09:42 | 40.98473 | 14.75131 | 8148 ft | 228 kts | 56° |
| 2026-02-20 09:43 | 41.00147 | 14.78698 | 7421 ft | 227 kts | 56° |
| 2026-02-20 09:43 | 41.00983 | 14.80482 | 7334 ft | 228 kts | 56° |
| 2026-02-20 09:43 | 41.01819 | 14.82267 | 7336 ft | 228 kts | 56° |
| 2026-02-20 09:43 | 41.02650 | 14.84052 | 7312 ft | 227 kts | 56° |
| 2026-02-20 09:44 | 41.03511 | 14.85805 | 7390 ft | 226 kts | 48° |
| 2026-02-20 09:44 | 41.04748 | 14.86984 | 7443 ft | 219 kts | 13° |
| 2026-02-20 09:44 | 41.06214 | 14.87038 | 7255 ft | 209 kts | 339° |
| 2026-02-20 09:44 | 41.07430 | 14.86031 | 6833 ft | 208 kts | 307° |
| 2026-02-20 09:45 | 41.07976 | 14.84360 | 6597 ft | 192 kts | 277° |
| 2026-02-20 09:45 | 41.08071 | 14.82650 | 6426 ft | 181 kts | 271° |
| 2026-02-20 09:45 | 41.08030 | 14.81019 | 6171 ft | 174 kts | 265° |
| 2026-02-20 09:45 | 41.07881 | 14.79448 | 5885 ft | 169 kts | 260° |
| 2026-02-20 09:46 | 41.07648 | 14.77970 | 5734 ft | 160 kts | 256° |
| 2026-02-20 09:46 | 41.07352 | 14.76579 | 5496 ft | 153 kts | 252° |
| 2026-02-20 09:46 | 41.07006 | 14.75306 | 5151 ft | 144 kts | 249° |
| 2026-02-20 09:46 | 41.06598 | 14.74096 | 4794 ft | 144 kts | 244° |
| 2026-02-20 09:47 | 41.06141 | 14.72926 | 4435 ft | 141 kts | 246° |
| 2026-02-20 09:47 | 41.05875 | 14.71673 | 4074 ft | 142 kts | 263° |
| 2026-02-20 09:47 | 41.05816 | 14.70378 | 3709 ft | 140 kts | 265° |
| 2026-02-20 09:47 | 41.05730 | 14.69116 | 3623 ft | 137 kts | 263° |
| 2026-02-20 09:48 | 41.05610 | 14.67861 | 3620 ft | 137 kts | 256° |
| 2026-02-20 09:48 | 41.05102 | 14.66830 | 3764 ft | 137 kts | 218° |
| 2026-02-20 09:48 | 41.04302 | 14.66142 | 4161 ft | 137 kts | 224° |
| 2026-02-20 09:48 | 41.03882 | 14.65003 | 4290 ft | 140 kts | 246° |
| 2026-02-20 09:49 | 41.03475 | 14.63843 | 4427 ft | 138 kts | 245° |
| 2026-02-20 09:49 | 41.03035 | 14.62693 | 4477 ft | 140 kts | 240° |
| 2026-02-20 09:49 | 41.02554 | 14.61586 | 4679 ft | 139 kts | 241° |
| 2026-02-20 09:49 | 41.02174 | 14.60427 | 5130 ft | 135 kts | 261° |
| 2026-02-20 09:50 | 41.02193 | 14.59207 | 5559 ft | 126 kts | 284° |
| 2026-02-20 09:50 | 41.02367 | 14.58106 | 6014 ft | 136 kts | 262° |
| 2026-02-20 09:50 | 41.01882 | 14.56986 | 5588 ft | 141 kts | 232° |
| 2026-02-20 09:50 | 41.01322 | 14.56021 | 5930 ft | 136 kts | 237° |
| 2026-02-20 09:51 | 41.00810 | 14.54937 | 5829 ft | 137 kts | 241° |
| 2026-02-20 09:51 | 41.00349 | 14.53836 | 5537 ft | 136 kts | 243° |
| 2026-02-20 09:51 | 40.99921 | 14.52708 | 5156 ft | 138 kts | 245° |
| 2026-02-20 09:51 | 40.99525 | 14.51563 | 4781 ft | 140 kts | 246° |
| 2026-02-20 09:52 | 40.99034 | 14.50426 | 4388 ft | 140 kts | 238° |
| 2026-02-20 09:52 | 40.98533 | 14.49320 | 3989 ft | 139 kts | 240° |
| 2026-02-20 09:52 | 40.98077 | 14.48221 | 3597 ft | 137 kts | 241° |
| 2026-02-20 09:52 | 40.97621 | 14.47145 | 3533 ft | 126 kts | 237° |
| 2026-02-20 09:53 | 40.97127 | 14.46124 | 3606 ft | 133 kts | 236° |
| 2026-02-20 09:53 | 40.96615 | 14.45110 | 3353 ft | 133 kts | 235° |
| 2026-02-20 09:53 | 40.96090 | 14.44095 | 3047 ft | 133 kts | 234° |
| 2026-02-20 09:53 | 40.95574 | 14.43088 | 2808 ft | 132 kts | 234° |
| 2026-02-20 09:54 | 40.95067 | 14.42086 | 2653 ft | 131 kts | 234° |
| 2026-02-20 09:54 | 40.94557 | 14.41077 | 2502 ft | 132 kts | 234° |
| 2026-02-20 09:54 | 40.94054 | 14.40071 | 2244 ft | 131 kts | 234° |
| 2026-02-20 09:54 | 40.93545 | 14.39061 | 1994 ft | 132 kts | 235° |
| 2026-02-20 09:55 | 40.93035 | 14.38049 | 1728 ft | 133 kts | 235° |
| 2026-02-20 09:55 | 40.92523 | 14.37032 | 1532 ft | 133 kts | 236° |
| 2026-02-20 09:55 | 40.92015 | 14.36006 | 1379 ft | 133 kts | 237° |
| 2026-02-20 09:55 | 40.91496 | 14.34986 | 1229 ft | 134 kts | 236° |
| 2026-02-20 09:56 | 40.90962 | 14.33974 | 1050 ft | 134 kts | 235° |
| 2026-02-20 09:56 | 40.90438 | 14.32948 | 780 ft | 135 kts | 237° |
| 2026-02-20 09:56 | 40.89964 | 14.31906 | 646 ft | 130 kts | 237° |
| 2026-02-20 09:56 | 40.89485 | 14.30904 | 410 ft | 129 kts | 234° |
| 2026-02-20 09:57 | 40.89003 | 14.29922 | 260 ft | 122 kts | 238° |
| 2026-02-20 09:57 | 40.88634 | 14.29143 | 271 ft | 63 kts | 238° |
| 2026-02-20 09:57 | 40.88500 | 14.28865 | 278 ft | 30 kts | 237° |
| 2026-02-20 09:57 | 40.88431 | 14.28768 | 280 ft | 4 kts | 176° |
| 2026-02-20 09:58 | 40.88398 | 14.28782 | 281 ft | 6 kts | 158° |
| 2026-02-20 09:58 | 40.88351 | 14.28817 | 281 ft | 9 kts | 148° |
| 2026-02-20 09:58 | 40.88292 | 14.28866 | 281 ft | 11 kts | 148° |
| 2026-02-20 09:58 | 40.88273 | 14.28881 | 281 ft | 1 kts | 148° |
| 2026-02-20 09:59 | 40.88245 | 14.28899 | 281 ft | 8 kts | 173° |
| 2026-02-20 09:59 | 40.88196 | 14.28860 | 285 ft | 8 kts | 250° |
| 2026-02-20 09:59 | 40.88229 | 14.28815 | 283 ft | 3 kts | 330° |
| 2026-02-20 09:59 | 40.88238 | 14.28807 | 283 ft | 0 kts | 328° |